createdAt,value
2018-02-22T00:01:54.969Z,30.17
2018-02-22T00:04:23.262Z,29.07
2018-02-22T00:06:51.569Z,28.20
2018-02-22T00:09:25.793Z,32.10
2018-02-22T00:11:54.378Z,31.50
2018-02-22T00:14:23.423Z,35.10
2018-02-22T00:16:51.749Z,32.73
2018-02-22T00:19:20.816Z,31.50
2018-02-22T00:21:49.099Z,29.73
2018-02-22T00:24:17.407Z,31.70
2018-02-22T00:26:45.737Z,31.83
2018-02-22T00:29:14.018Z,30.47
2018-02-22T00:31:42.358Z,26.10
2018-02-22T00:34:10.603Z,28.97
2018-02-22T00:36:38.880Z,31.00
2018-02-22T00:39:07.174Z,31.60
2018-02-22T00:41:35.429Z,27.83
2018-02-22T00:44:03.701Z,26.97
2018-02-22T00:46:32.808Z,27.33
2018-02-22T00:49:01.080Z,34.37
2018-02-22T00:51:29.361Z,29.03
2018-02-22T00:53:57.671Z,32.23
2018-02-22T00:56:26.375Z,31.10
2018-02-22T00:58:55.458Z,33.63
2018-02-22T01:01:23.762Z,27.50
2018-02-22T01:03:52.051Z,32.67
2018-02-22T01:06:21.133Z,30.37
2018-02-22T01:08:49.443Z,26.50
2018-02-22T01:11:17.730Z,27.40
2018-02-22T01:13:45.980Z,25.27
2018-02-22T01:16:14.274Z,25.50
2018-02-22T01:18:42.547Z,23.67
2018-02-22T01:21:10.835Z,25.10
2018-02-22T01:23:39.182Z,24.10
2018-02-22T01:26:07.450Z,22.90
2018-02-22T01:28:36.518Z,25.43
2018-02-22T01:31:04.865Z,25.77
2018-02-22T01:33:33.192Z,23.90
2018-02-22T01:36:01.505Z,23.50
2018-02-22T01:38:29.786Z,24.47
2018-02-22T01:40:58.035Z,22.97
2018-02-22T01:43:27.107Z,21.93
2018-02-22T01:45:56.249Z,23.60
2018-02-22T01:48:25.355Z,23.80
2018-02-22T01:50:53.638Z,27.37
2018-02-22T01:53:23.551Z,23.67
2018-02-22T01:55:51.806Z,28.10
2018-02-22T01:58:20.072Z,31.50
2018-02-22T02:00:49.180Z,29.60
2018-02-22T02:03:17.457Z,28.60
2018-02-22T02:05:45.769Z,31.90
2018-02-22T02:08:14.069Z,30.40
2018-02-22T02:10:42.464Z,29.40
2018-02-22T02:13:11.483Z,27.73
2018-02-22T02:15:39.829Z,27.70
2018-02-22T02:18:08.881Z,23.77
2018-02-22T02:20:37.109Z,26.53
2018-02-22T02:23:06.183Z,23.53
2018-02-22T02:25:35.244Z,24.50
2018-02-22T02:28:08.308Z,21.70
2018-02-22T02:30:36.787Z,25.10
2018-02-22T02:33:05.092Z,26.00
2018-02-22T02:35:33.389Z,27.30
2018-02-22T02:38:01.654Z,28.33
2018-02-22T02:40:29.959Z,28.80
2018-02-22T02:42:59.094Z,22.40
2018-02-22T02:45:27.393Z,25.30
2018-02-22T02:47:55.716Z,28.97
2018-02-22T02:50:24.803Z,22.97
2018-02-22T02:52:53.839Z,26.87
2018-02-22T02:55:22.100Z,24.47
2018-02-22T02:57:50.408Z,24.70
2018-02-22T03:00:18.694Z,29.03
2018-02-22T03:02:46.968Z,25.90
2018-02-22T03:05:15.274Z,22.00
2018-02-22T03:07:44.328Z,24.00
2018-02-22T03:10:12.620Z,25.57
2018-02-22T03:12:40.942Z,23.40
2018-02-22T03:15:09.951Z,26.87
2018-02-22T03:17:38.198Z,26.20
2018-02-22T03:20:07.263Z,29.07
2018-02-22T03:22:35.523Z,29.50
2018-02-22T03:25:03.787Z,27.20
2018-02-22T03:27:32.127Z,26.70
2018-02-22T03:30:01.147Z,31.07
2018-02-22T03:32:29.448Z,24.13
2018-02-22T03:34:57.782Z,26.10
2018-02-22T03:37:26.028Z,26.80
2018-02-22T03:39:54.300Z,29.70
2018-02-22T03:42:22.627Z,24.83
2018-02-22T03:44:50.908Z,30.30
2018-02-22T03:47:19.204Z,27.20
2018-02-22T03:49:47.503Z,26.67
2018-02-22T03:52:15.831Z,28.40
2018-02-22T03:54:44.437Z,24.60
2018-02-22T03:57:12.714Z,24.10
2018-02-22T03:59:40.973Z,22.40
2018-02-22T04:02:09.272Z,27.90
2018-02-22T04:04:37.590Z,28.27
2018-02-22T04:07:06.621Z,29.40
2018-02-22T04:09:34.901Z,29.80
2018-02-22T04:12:04.496Z,27.07
2018-02-22T04:14:32.819Z,24.40
2018-02-22T04:17:01.079Z,24.90
2018-02-22T04:19:29.362Z,27.27
2018-02-22T04:21:57.628Z,24.77
2018-02-22T04:24:25.899Z,31.17
2018-02-22T04:26:54.199Z,28.93
2018-02-22T04:29:22.475Z,32.77
2018-02-22T04:31:50.765Z,30.40
2018-02-22T04:34:19.863Z,27.20
2018-02-22T04:36:48.895Z,27.40
2018-02-22T04:39:17.173Z,29.67
2018-02-22T04:41:45.454Z,26.57
2018-02-22T04:44:13.729Z,29.43
2018-02-22T04:46:42.028Z,29.77
2018-02-22T04:49:10.343Z,27.90
2018-02-22T04:51:38.603Z,30.70
2018-02-22T04:54:06.869Z,27.23
2018-02-22T04:56:35.158Z,30.70
2018-02-22T04:59:04.187Z,30.50
2018-02-22T05:01:32.489Z,25.80
2018-02-22T05:04:00.815Z,29.37
2018-02-22T05:06:29.850Z,33.60
2018-02-22T05:08:58.127Z,30.73
2018-02-22T05:11:26.475Z,31.23
2018-02-22T05:13:55.585Z,30.00
2018-02-22T05:16:23.843Z,29.27
2018-02-22T05:18:52.182Z,34.53
2018-02-22T05:21:20.464Z,31.37
2018-02-22T05:23:48.707Z,28.00
2018-02-22T05:26:17.019Z,32.63
2018-02-22T05:28:45.292Z,28.00
2018-02-22T05:31:13.609Z,27.07
2018-02-22T05:33:41.926Z,30.87
2018-02-22T05:36:10.229Z,33.30
2018-02-22T05:38:38.525Z,24.93
2018-02-22T05:41:07.632Z,25.77
2018-02-22T05:43:35.909Z,27.23
2018-02-22T05:46:04.196Z,26.23
2018-02-22T05:48:32.523Z,27.70
2018-02-22T05:51:00.785Z,23.77
2018-02-22T05:53:29.090Z,24.77
2018-02-22T05:55:57.422Z,24.30
2018-02-22T05:58:26.504Z,26.90
2018-02-22T06:00:54.830Z,28.17
2018-02-22T06:03:23.125Z,25.93
2018-02-22T06:05:52.150Z,25.20
2018-02-22T06:08:20.398Z,27.17
2018-02-22T06:10:49.436Z,25.63
2018-02-22T06:13:17.707Z,26.37
2018-02-22T06:15:45.979Z,26.40
2018-02-22T06:18:14.269Z,26.43
2018-02-22T06:20:42.502Z,24.50
2018-02-22T06:23:10.765Z,31.30
2018-02-22T06:25:39.807Z,25.67
2018-02-22T06:28:08.070Z,25.43
2018-02-22T06:30:36.362Z,27.37
2018-02-22T06:33:04.697Z,28.40
2018-02-22T06:35:32.976Z,25.20
2018-02-22T06:38:01.500Z,28.13
2018-02-22T06:40:29.832Z,31.57
2018-02-22T06:42:58.091Z,24.97
2018-02-22T06:45:27.102Z,22.33
2018-02-22T06:47:55.456Z,32.83
2018-02-22T06:50:24.500Z,23.90
2018-02-22T06:52:52.774Z,23.47
2018-02-22T06:55:21.927Z,20.53
2018-02-22T06:57:50.924Z,26.70
2018-02-22T07:00:19.974Z,27.40
2018-02-22T07:02:48.318Z,23.00
2018-02-22T07:05:16.650Z,24.13
2018-02-22T07:07:44.920Z,25.53
2018-02-22T07:10:13.233Z,25.40
2018-02-22T07:12:41.519Z,27.40
2018-02-22T07:15:09.781Z,29.83
2018-02-22T07:17:38.889Z,25.07
2018-02-22T07:20:07.141Z,23.63
2018-02-22T07:22:36.157Z,26.60
2018-02-22T07:25:04.451Z,23.93
2018-02-22T07:27:32.700Z,26.70
2018-02-22T07:30:01.730Z,31.63
2018-02-22T07:32:30.013Z,24.10
2018-02-22T07:34:58.324Z,27.53
2018-02-22T07:37:26.663Z,23.37
2018-02-22T07:39:54.924Z,20.10
2018-02-22T07:42:23.198Z,21.00
2018-02-22T07:44:51.482Z,20.20
2018-02-22T07:47:19.720Z,30.00
2018-02-22T07:49:47.963Z,28.20
2018-02-22T07:52:16.303Z,23.23
2018-02-22T07:54:44.575Z,20.93
2018-02-22T07:57:12.877Z,19.20
2018-02-22T07:59:41.226Z,11.10
2018-02-22T08:02:09.690Z,24.07
2018-02-22T08:04:38.064Z,22.17
2018-02-22T08:07:06.548Z,21.97
2018-02-22T08:09:35.188Z,29.07
2018-02-22T08:12:04.535Z,15.20
2018-02-22T08:14:34.110Z,18.50
2018-02-22T08:17:03.106Z,17.53
2018-02-22T08:19:32.972Z,19.20
2018-02-22T08:22:02.793Z,16.00
2018-02-22T08:24:31.152Z,15.93
2018-02-22T08:26:59.471Z,17.30
2018-02-22T08:29:27.888Z,14.20
2018-02-22T08:31:56.292Z,17.10
2018-02-22T08:34:25.693Z,15.57
2018-02-22T08:36:54.753Z,16.53
2018-02-22T08:39:24.168Z,25.53
2018-02-22T08:41:52.560Z,22.87
2018-02-22T08:44:20.882Z,21.47
2018-02-22T08:46:49.578Z,14.73
2018-02-22T08:49:18.032Z,12.93
2018-02-22T08:51:46.471Z,19.13
2018-02-22T08:54:16.150Z,19.73
2018-02-22T08:56:44.607Z,14.37
2018-02-22T08:59:12.941Z,16.30
2018-02-22T09:01:42.681Z,16.87
2018-02-22T09:04:11.201Z,13.57
2018-02-22T09:06:39.784Z,11.73
2018-02-22T09:09:08.854Z,13.60
2018-02-22T09:11:37.617Z,9.67
2018-02-22T09:14:07.031Z,9.40
2018-02-22T09:16:35.732Z,11.10
2018-02-22T09:19:04.365Z,9.83
2018-02-22T09:21:33.002Z,13.50
2018-02-22T09:24:03.064Z,9.80
2018-02-22T09:26:31.642Z,16.27
2018-02-22T09:29:00.614Z,13.17
2018-02-22T09:31:29.632Z,11.67
2018-02-22T09:33:58.170Z,14.80
2018-02-22T09:36:26.837Z,12.27
2018-02-22T09:38:56.503Z,12.90
2018-02-22T09:41:25.453Z,14.70
2018-02-22T09:43:54.017Z,11.57
2018-02-22T09:46:22.783Z,10.50
2018-02-22T09:48:51.186Z,12.90
2018-02-22T09:51:19.735Z,12.10
2018-02-22T09:53:48.361Z,10.00
2018-02-22T09:56:17.958Z,12.73
2018-02-22T09:58:46.699Z,7.63
2018-02-22T10:01:16.034Z,10.80
2018-02-22T10:03:44.285Z,9.23
2018-02-22T10:06:12.664Z,10.10
2018-02-22T10:08:41.116Z,11.07
2018-02-22T10:11:09.789Z,12.37
2018-02-22T10:13:38.153Z,12.23
2018-02-22T10:16:06.532Z,11.13
2018-02-22T10:18:34.864Z,10.40
2018-02-22T10:21:03.267Z,10.73
2018-02-22T10:23:31.773Z,10.67
2018-02-22T10:26:00.094Z,12.60
2018-02-22T10:28:28.433Z,10.97
2018-02-22T10:30:57.527Z,10.30
2018-02-22T10:33:26.845Z,12.03
2018-02-22T10:35:55.246Z,14.07
2018-02-22T10:38:23.595Z,11.97
2018-02-22T10:40:52.896Z,10.40
2018-02-22T10:43:21.241Z,11.40
2018-02-22T10:45:50.379Z,8.10
2018-02-22T10:48:18.644Z,11.70
2018-02-22T10:50:47.001Z,11.03
2018-02-22T10:53:15.618Z,11.73
2018-02-22T10:55:43.951Z,12.10
2018-02-22T10:58:12.233Z,10.60
2018-02-22T11:00:46.017Z,10.77
2018-02-22T11:03:14.419Z,11.77
2018-02-22T11:05:42.736Z,10.60
2018-02-22T11:08:11.781Z,11.10
2018-02-22T11:10:40.044Z,10.20
2018-02-22T11:13:08.332Z,10.77
2018-02-22T11:15:36.629Z,12.10
2018-02-22T11:18:04.906Z,11.13
2018-02-22T11:20:33.201Z,9.90
2018-02-22T11:23:02.367Z,8.77
2018-02-22T11:25:30.737Z,11.37
2018-02-22T11:27:59.049Z,8.53
2018-02-22T11:30:27.441Z,10.97
2018-02-22T11:32:56.466Z,11.83
2018-02-22T11:35:24.866Z,10.97
2018-02-22T11:37:53.634Z,8.00
2018-02-22T11:40:28.989Z,7.83
2018-02-22T11:42:57.686Z,9.37
2018-02-22T11:45:26.004Z,10.27
2018-02-22T11:47:55.389Z,10.23
2018-02-22T11:50:23.727Z,9.23
2018-02-22T11:52:51.946Z,9.57
2018-02-22T11:55:20.402Z,8.00
2018-02-22T11:57:48.678Z,9.77
2018-02-22T12:00:16.933Z,8.60
2018-02-22T12:02:45.400Z,7.93
2018-02-22T12:05:13.763Z,9.80
2018-02-22T12:07:42.160Z,9.00
2018-02-22T12:10:10.597Z,9.40
2018-02-22T12:12:39.705Z,9.37
2018-02-22T12:15:08.826Z,11.27
2018-02-22T12:17:37.187Z,10.13
2018-02-22T12:20:05.564Z,10.13
2018-02-22T12:22:33.842Z,9.90
2018-02-22T12:25:02.949Z,14.20
2018-02-22T12:27:31.240Z,65.27
2018-02-22T12:29:59.525Z,10.13
2018-02-22T12:32:27.827Z,10.00
2018-02-22T12:34:56.060Z,34.30
2018-02-22T12:37:24.316Z,37.50
2018-02-22T12:39:52.586Z,14.70
2018-02-22T12:42:20.992Z,9.00
2018-02-22T12:44:49.333Z,17.47
2018-02-22T12:47:18.419Z,20.73
2018-02-22T12:49:46.820Z,10.00
2018-02-22T12:52:15.156Z,18.83
2018-02-22T12:54:43.510Z,24.33
2018-02-22T12:57:13.336Z,10.03
2018-02-22T12:59:41.597Z,18.20
2018-02-22T13:02:10.740Z,9.17
2018-02-22T13:04:39.018Z,9.23
2018-02-22T13:07:08.049Z,12.23
2018-02-22T13:09:36.306Z,10.90
2018-02-22T13:12:04.679Z,8.80
2018-02-22T13:14:33.664Z,8.77
2018-02-22T13:17:02.665Z,9.30
2018-02-22T13:19:31.699Z,12.60
2018-02-22T13:21:59.946Z,9.40
2018-02-22T13:24:28.361Z,10.47
2018-02-22T13:26:56.674Z,11.53
2018-02-22T13:29:24.948Z,7.90
2018-02-22T13:31:53.550Z,6.93
2018-02-22T13:34:35.745Z,7.70
2018-02-22T13:37:22.529Z,6.07
2018-02-22T13:39:51.754Z,12.30
2018-02-22T13:42:20.822Z,6.90
2018-02-22T13:45:07.072Z,7.33
2018-02-22T13:47:35.443Z,27.47
2018-02-22T13:50:21.598Z,9.17
2018-02-22T13:52:50.013Z,8.23
2018-02-22T13:55:18.336Z,11.03
2018-02-22T13:57:46.623Z,9.80
2018-02-22T14:00:32.835Z,13.00
2018-02-22T14:03:01.886Z,8.80
2018-02-22T14:05:30.297Z,10.30
2018-02-22T14:07:58.726Z,11.30
2018-02-22T14:10:27.037Z,12.97
2018-02-22T14:12:55.350Z,10.40
2018-02-22T14:15:23.835Z,9.50
2018-02-22T14:17:52.262Z,10.60
2018-02-22T14:20:20.568Z,8.40
2018-02-22T14:22:49.121Z,16.30
2018-02-22T14:25:17.428Z,9.43
2018-02-22T14:27:45.815Z,9.90
2018-02-22T14:30:14.304Z,6.30
2018-02-22T14:32:43.419Z,10.63
2018-02-22T14:35:11.763Z,7.40
2018-02-22T14:37:40.121Z,9.13
2018-02-22T14:40:08.438Z,8.30
2018-02-22T14:42:36.720Z,8.57
2018-02-22T14:45:05.074Z,9.70
2018-02-22T14:47:34.293Z,7.30
2018-02-22T14:50:02.577Z,7.93
2018-02-22T14:52:31.350Z,8.43
2018-02-22T14:55:00.395Z,8.43
2018-02-22T14:57:28.713Z,8.30
2018-02-22T14:59:57.160Z,13.33
2018-02-22T15:02:26.563Z,12.10
2018-02-22T15:04:54.986Z,10.93
2018-02-22T15:07:24.285Z,8.43
2018-02-22T15:09:52.571Z,9.43
2018-02-22T15:12:21.636Z,10.37
2018-02-22T15:14:49.931Z,10.07
2018-02-22T15:17:18.295Z,9.63
2018-02-22T15:19:47.390Z,11.37
2018-02-22T15:22:15.695Z,9.40
2018-02-22T15:24:43.943Z,8.73
2018-02-22T15:27:12.223Z,7.90
2018-02-22T15:29:41.391Z,8.23
2018-02-22T15:32:09.684Z,17.57
2018-02-22T15:34:38.027Z,12.13
2018-02-22T15:37:06.471Z,20.07
2018-02-22T15:39:34.717Z,12.73
2018-02-22T15:42:03.735Z,8.40
2018-02-22T15:44:32.036Z,7.20
2018-02-22T15:47:00.311Z,11.13
2018-02-22T15:49:28.608Z,12.40
2018-02-22T15:51:56.900Z,10.10
2018-02-22T15:54:25.149Z,10.53
2018-02-22T15:56:53.408Z,10.50
2018-02-22T15:59:21.665Z,11.67
2018-02-22T16:01:50.022Z,9.93
2018-02-22T16:04:19.057Z,11.20
2018-02-22T16:06:47.317Z,9.90
2018-02-22T16:09:15.625Z,14.03
2018-02-22T16:11:43.905Z,8.97
2018-02-22T16:14:12.203Z,11.33
2018-02-22T16:16:41.539Z,13.90
2018-02-22T16:19:09.819Z,13.20
2018-02-22T16:21:38.116Z,10.43
2018-02-22T16:24:06.495Z,14.60
2018-02-22T16:26:34.871Z,14.63
2018-02-22T16:29:03.174Z,11.53
2018-02-22T16:31:31.446Z,15.20
2018-02-22T16:34:06.472Z,15.93
2018-02-22T16:36:34.787Z,17.17
2018-02-22T16:39:03.030Z,14.07
2018-02-22T16:41:44.625Z,18.53
2018-02-22T16:44:13.068Z,16.53
2018-02-22T16:46:41.312Z,17.27
2018-02-22T16:49:10.429Z,16.30
2018-02-22T16:51:38.895Z,15.80
2018-02-22T16:54:07.921Z,14.10
2018-02-22T16:56:36.185Z,14.70
2018-02-22T16:59:04.469Z,15.70
2018-02-22T17:01:32.737Z,18.33
2018-02-22T17:04:01.014Z,21.47
2018-02-22T17:06:29.312Z,23.07
2018-02-22T17:09:12.220Z,19.77
2018-02-22T17:11:40.610Z,12.90
2018-02-22T17:14:08.887Z,22.87
2018-02-22T17:16:37.169Z,17.00
2018-02-22T17:19:05.447Z,33.63
2018-02-22T17:21:37.080Z,16.70
2018-02-22T17:24:07.141Z,16.60
2018-02-22T17:26:41.042Z,51.60
2018-02-22T17:29:14.836Z,15.50
2018-02-22T17:32:12.467Z,16.67
2018-02-22T17:34:45.497Z,13.73
2018-02-22T17:37:20.142Z,14.90
2018-02-22T17:39:49.614Z,14.70
2018-02-22T17:42:17.917Z,16.30
2018-02-22T17:44:46.217Z,20.90
2018-02-22T17:47:14.520Z,14.70
2018-02-22T17:49:42.811Z,18.17
2018-02-22T17:52:11.167Z,19.10
2018-02-22T17:54:39.457Z,18.37
2018-02-22T17:57:07.808Z,17.10
2018-02-22T17:59:36.522Z,23.40
2018-02-22T18:02:05.722Z,16.87
2018-02-22T18:04:34.319Z,20.30
2018-02-22T18:07:02.697Z,24.97
2018-02-22T18:09:30.950Z,25.13
2018-02-22T18:12:00.027Z,18.27
2018-02-22T18:14:28.470Z,17.23
2018-02-22T18:16:58.410Z,21.40
2018-02-22T18:19:27.532Z,23.63
2018-02-22T18:21:56.406Z,22.10
2018-02-22T18:24:25.592Z,20.60
2018-02-22T18:26:54.803Z,19.07
2018-02-22T18:29:23.119Z,22.10
2018-02-22T18:31:51.388Z,17.60
2018-02-22T18:34:19.644Z,19.80
2018-02-22T18:36:47.966Z,26.63
2018-02-22T18:39:16.972Z,24.17
2018-02-22T18:41:51.497Z,19.93
2018-02-22T18:44:26.261Z,21.27
2018-02-22T18:46:55.767Z,25.20
2018-02-22T18:49:24.689Z,28.13
2018-02-22T18:54:54.505Z,24.00
2018-02-22T18:57:22.980Z,21.87
2018-02-22T18:59:54.319Z,24.37
2018-02-22T19:02:22.854Z,27.77
2018-02-22T19:07:48.991Z,24.50
2018-02-22T19:13:21.097Z,18.00
2018-02-22T19:15:50.170Z,22.47
2018-02-22T19:18:18.484Z,18.03
2018-02-22T19:20:46.771Z,21.47
2018-02-22T19:23:15.899Z,19.30
2018-02-22T19:25:44.223Z,22.10
2018-02-22T19:28:12.709Z,22.20
2018-02-22T19:30:41.776Z,21.03
2018-02-22T19:33:10.105Z,21.90
2018-02-22T19:35:38.467Z,24.33
2018-02-22T19:38:06.756Z,24.17
2018-02-22T19:40:35.018Z,21.37
2018-02-22T19:43:03.361Z,30.10
2018-02-22T19:45:31.626Z,27.43
2018-02-22T19:48:00.384Z,19.93
2018-02-22T19:50:28.660Z,26.43
2018-02-22T19:52:57.011Z,23.30
2018-02-22T19:55:25.504Z,21.70
2018-02-22T19:57:55.114Z,28.00
2018-02-22T20:00:23.468Z,28.80
2018-02-22T20:02:51.923Z,29.93
2018-02-22T20:05:20.246Z,26.97
2018-02-22T20:07:48.502Z,25.90
2018-02-22T20:10:17.596Z,23.30
2018-02-22T20:12:45.967Z,26.57
2018-02-22T20:15:15.019Z,20.73
2018-02-22T20:17:43.324Z,27.20
2018-02-22T20:20:12.505Z,21.17
2018-02-22T20:22:41.606Z,26.07
2018-02-22T20:25:09.966Z,32.00
2018-02-22T20:27:38.269Z,24.40
2018-02-22T20:30:07.355Z,27.47
2018-02-22T20:32:35.595Z,27.50
2018-02-22T20:35:03.926Z,32.30
2018-02-22T20:37:33.008Z,24.73
2018-02-22T20:40:02.132Z,26.47
2018-02-22T20:42:36.494Z,25.73
2018-02-22T20:45:04.948Z,24.60
2018-02-22T20:47:33.344Z,24.47
2018-02-22T20:50:02.456Z,24.57
2018-02-22T20:52:36.589Z,24.27
2018-02-22T20:55:08.701Z,24.40
2018-02-22T20:57:37.033Z,24.57
2018-02-22T21:00:05.365Z,23.97
2018-02-22T21:02:33.597Z,23.70
2018-02-22T21:05:02.674Z,25.60
2018-02-22T21:07:30.954Z,23.07
2018-02-22T21:09:59.234Z,22.93
2018-02-22T21:12:27.586Z,23.53
2018-02-22T21:14:55.850Z,21.90
2018-02-22T21:17:24.134Z,24.40
2018-02-22T21:19:52.517Z,25.07
2018-02-22T21:22:20.777Z,32.17
2018-02-22T21:24:49.061Z,24.80
2018-02-22T21:27:17.437Z,31.80
2018-02-22T21:29:46.510Z,27.03
2018-02-22T21:32:14.897Z,21.43
2018-02-22T21:34:43.255Z,24.93
2018-02-22T21:37:11.554Z,28.77
2018-02-22T21:39:39.830Z,71.20
2018-02-22T21:42:08.116Z,31.57
2018-02-22T21:44:36.393Z,36.27
2018-02-22T21:47:04.659Z,25.80
2018-02-22T21:49:33.083Z,22.63
2018-02-22T21:52:01.422Z,24.07
2018-02-22T21:54:29.667Z,26.80
2018-02-22T21:56:57.998Z,33.30
2018-02-22T21:59:26.369Z,29.30
2018-02-22T22:01:54.602Z,28.17
2018-02-22T22:04:22.938Z,26.37
2018-02-22T22:06:51.214Z,39.47
2018-02-22T22:09:19.462Z,60.00
2018-02-22T22:11:47.906Z,39.40
2018-02-22T22:14:16.262Z,24.50
2018-02-22T22:16:45.262Z,23.00
2018-02-22T22:19:13.722Z,20.57
2018-02-22T22:21:41.989Z,22.50
2018-02-22T22:24:10.262Z,24.43
2018-02-22T22:26:39.329Z,21.40
2018-02-22T22:29:07.701Z,16.70
2018-02-22T22:31:36.016Z,21.67
2018-02-22T22:34:04.282Z,20.93
2018-02-22T22:36:32.511Z,23.40
2018-02-22T22:39:00.776Z,24.60
2018-02-22T22:41:29.131Z,21.10
2018-02-22T22:43:58.192Z,22.13
2018-02-22T22:46:26.452Z,24.03
2018-02-22T22:48:54.851Z,20.30
2018-02-22T22:51:23.164Z,18.67
2018-02-22T22:53:52.183Z,23.47
2018-02-22T22:56:20.506Z,24.00
2018-02-22T22:58:48.781Z,23.67
2018-02-22T23:01:17.885Z,20.67
2018-02-22T23:03:47.072Z,20.43
2018-02-22T23:06:15.385Z,19.30
2018-02-22T23:08:45.127Z,21.00
2018-02-22T23:11:13.475Z,24.10
2018-02-22T23:13:42.004Z,25.60
2018-02-22T23:16:10.298Z,20.43
2018-02-22T23:18:38.578Z,26.67
2018-02-22T23:21:07.599Z,21.67
2018-02-22T23:23:36.703Z,22.53
2018-02-22T23:26:05.034Z,22.43
2018-02-22T23:28:33.349Z,23.60
2018-02-22T23:31:01.603Z,22.93
2018-02-22T23:33:29.944Z,21.90
2018-02-22T23:35:58.217Z,22.47
2018-02-22T23:38:26.450Z,20.23
2018-02-22T23:41:04.634Z,17.63
2018-02-22T23:43:32.932Z,20.97
2018-02-22T23:46:01.180Z,21.10
2018-02-22T23:48:30.521Z,20.67
2018-02-22T23:50:58.767Z,20.63
2018-02-22T23:53:27.058Z,23.80
2018-02-22T23:55:55.371Z,20.40
2018-02-22T23:58:23.654Z,24.90
